Erria Swan — 9HHJ9 — position and weather

sailwx.info

Track history (hours):
 
Tides and Currents Weather Stations Pressure Air Temp Water Temp Dewpoint Dewpoint Depression Visibility Wind Speed Wind Dir Waves Ship Positions

Erria Swan

Last reported at 2015-Jan-19 18:21 UTC. Time now 2015-Jan-30 18:36 UTC.
Position N 07°17' W 014°23'.
Warning: this ship's position is 11 days out of date.

Length 130 m; draft 8 m.

Type: Ship. MMSI: 256986000.

Date/timePositionNaut miles runAvg speedWind from/ knotsBaromVisibWave heightAir tempDewpointWater temp
2015-Jan-19 18:21N 07°17' W 014°23'3010.9
2015-Jan-19 15:33N 07°38' W 014°45'1110.8
2015-Jan-19 14:33N 07°46' W 014°52'1111.2
2015-Jan-19 13:33N 07°54' W 014°60'1110.9
2015-Jan-19 12:33N 08°02' W 015°08'11111.0
2015-Jan-19 02:29N 09°21' W 016°26'1411.2
2015-Jan-19 01:14N 09°31' W 016°36'5210.8
2015-Jan-18 20:23N 10°08' W 017°14'910.8
2015-Jan-18 19:33N 10°15' W 017°20'1110.9
2015-Jan-18 18:33N 10°23' W 017°28'1110.7
2015-Jan-18 17:33N 10°30' W 017°35'6011.6
2015-Jan-18 12:25N 11°28' W 017°49'  
2015-Jan-13 03:05N 33°40' W 008°49'611.8
2015-Jan-13 02:33N 33°44' W 008°43'1611.8
2015-Jan-13 01:11N 33°55' W 008°29'18711.0
2015-Jan-12 08:11N 35°58' W 005°37'6 9.3
2015-Jan-12 07:32N 35°60' W 005°30'9 8.9
2015-Jan-12 06:33N 36°07' W 005°24'3 0.3
2015-Jan-11 21:33N 36°10' W 005°24'1 0.1
2015-Jan-11 16:33N 36°10' W 005°24'1 1.5
2015-Jan-11 15:33N 36°08' W 005°24'4 4.1
2015-Jan-11 14:33N 36°05' W 005°21'4 3.6
2015-Jan-11 13:33N 36°04' W 005°17'5 4.6
2015-Jan-11 12:33N 36°04' W 005°22'4 3.6
2015-Jan-11 11:33N 36°03' W 005°18'7 7.0
2015-Jan-11 10:33N 36°04' W 005°09'15310.7
2015-Jan-10 20:15N 36°32' W 002°03'1011.0
2015-Jan-10 19:23N 36°38' W 001°54'911.0
2015-Jan-10 18:33N 36°44' W 001°45'1111.0
2015-Jan-10 17:33N 36°51' W 001°35'1110.6
2015-Jan-10 16:33N 36°59' W 001°26'1110.9
2015-Jan-10 15:33N 37°06' W 001°15'1211.6
2015-Jan-10 14:33N 37°13' W 001°04'1111.4
2015-Jan-10 13:33N 37°21' W 000°53'1111.3
2015-Jan-10 12:33N 37°28' W 000°43'1211.6
2015-Jan-10 11:33N 37°36' W 000°32'1111.3
2015-Jan-10 10:33N 37°46' W 000°24'1111.5
2015-Jan-10 09:33N 37°55' W 000°16'1211.5
2015-Jan-10 08:32N 38°05' W 000°08'2411.2
2015-Jan-10 06:23N 38°25' E 000°09'1411.2
2015-Jan-10 05:10N 38°37' E 000°18'18 9.8
2015-Jan-10 03:16N 38°55' E 000°14'811.6
2015-Jan-10 02:33N 39°02' E 000°07'2311.5
2015-Jan-10 00:33N 39°20' W 000°11'10 9.5
2015-Jan-09 23:31N 39°27' W 000°19'0 0.0
2015-Jan-09 22:31N 39°27' W 000°19'0 0.0
2015-Jan-09 21:31N 39°27' W 000°19'0 0.0
2015-Jan-09 20:31N 39°27' W 000°19'0 0.0
2015-Jan-09 19:28N 39°27' W 000°19'0 0.0
2015-Jan-09 18:31N 39°27' W 000°19'  
Track history (hours):
 
Tides and Currents Weather Stations Pressure Air Temp Water Temp Dewpoint Dewpoint Depression Visibility Wind Speed Wind Dir Waves Ship Positions

Erria Swan

Last reported at 2015-Jan-19 18:21 UTC. Time now 2015-Jan-30 18:36 UTC.
Position N 07°17' W 014°23'.
Warning: this ship's position is 11 days out of date.

Length 130 m; draft 8 m.

Type: Ship. MMSI: 256986000.

Date/timePositionNaut miles runAvg speedWind from/ knotsBaromVisibWave heightAir tempDewpointWater temp
2015-Jan-19 18:21N 07°17' W 014°23'3010.9
2015-Jan-19 15:33N 07°38' W 014°45'1110.8
2015-Jan-19 14:33N 07°46' W 014°52'1111.2
2015-Jan-19 13:33N 07°54' W 014°60'1110.9
2015-Jan-19 12:33N 08°02' W 015°08'11111.0
2015-Jan-19 02:29N 09°21' W 016°26'1411.2
2015-Jan-19 01:14N 09°31' W 016°36'5210.8
2015-Jan-18 20:23N 10°08' W 017°14'910.8
2015-Jan-18 19:33N 10°15' W 017°20'1110.9
2015-Jan-18 18:33N 10°23' W 017°28'1110.7
2015-Jan-18 17:33N 10°30' W 017°35'6011.6
2015-Jan-18 12:25N 11°28' W 017°49'  
2015-Jan-13 03:05N 33°40' W 008°49'611.8
2015-Jan-13 02:33N 33°44' W 008°43'1611.8
2015-Jan-13 01:11N 33°55' W 008°29'18711.0
2015-Jan-12 08:11N 35°58' W 005°37'6 9.3
2015-Jan-12 07:32N 35°60' W 005°30'9 8.9
2015-Jan-12 06:33N 36°07' W 005°24'3 0.3
2015-Jan-11 21:33N 36°10' W 005°24'1 0.1
2015-Jan-11 16:33N 36°10' W 005°24'1 1.5
2015-Jan-11 15:33N 36°08' W 005°24'4 4.1
2015-Jan-11 14:33N 36°05' W 005°21'4 3.6
2015-Jan-11 13:33N 36°04' W 005°17'5 4.6
2015-Jan-11 12:33N 36°04' W 005°22'4 3.6
2015-Jan-11 11:33N 36°03' W 005°18'7 7.0
2015-Jan-11 10:33N 36°04' W 005°09'15310.7
2015-Jan-10 20:15N 36°32' W 002°03'1011.0
2015-Jan-10 19:23N 36°38' W 001°54'911.0
2015-Jan-10 18:33N 36°44' W 001°45'1111.0
2015-Jan-10 17:33N 36°51' W 001°35'1110.6
2015-Jan-10 16:33N 36°59' W 001°26'1110.9
2015-Jan-10 15:33N 37°06' W 001°15'1211.6
2015-Jan-10 14:33N 37°13' W 001°04'1111.4
2015-Jan-10 13:33N 37°21' W 000°53'1111.3
2015-Jan-10 12:33N 37°28' W 000°43'1211.6
2015-Jan-10 11:33N 37°36' W 000°32'1111.3
2015-Jan-10 10:33N 37°46' W 000°24'1111.5
2015-Jan-10 09:33N 37°55' W 000°16'1211.5
2015-Jan-10 08:32N 38°05' W 000°08'2411.2
2015-Jan-10 06:23N 38°25' E 000°09'1411.2
2015-Jan-10 05:10N 38°37' E 000°18'18 9.8
2015-Jan-10 03:16N 38°55' E 000°14'811.6
2015-Jan-10 02:33N 39°02' E 000°07'2311.5
2015-Jan-10 00:33N 39°20' W 000°11'10 9.5
2015-Jan-09 23:31N 39°27' W 000°19'0 0.0
2015-Jan-09 22:31N 39°27' W 000°19'0 0.0
2015-Jan-09 21:31N 39°27' W 000°19'0 0.0
2015-Jan-09 20:31N 39°27' W 000°19'0 0.0
2015-Jan-09 19:28N 39°27' W 000°19'0 0.0
2015-Jan-09 18:31N 39°27' W 000°19'  

Dump ship's entire track history